createdAt,value
2022-11-07T00:01:12.484Z,9.03
2022-11-07T00:04:17.337Z,7.17
2022-11-07T00:07:20.482Z,7.07
2022-11-07T00:10:23.655Z,9.03
2022-11-07T00:13:27.579Z,8.93
2022-11-07T00:16:30.727Z,10.53
2022-11-07T00:19:35.210Z,5.60
2022-11-07T00:22:38.381Z,7.00
2022-11-07T00:25:41.493Z,6.80
2022-11-07T00:28:45.308Z,9.70
2022-11-07T00:31:49.396Z,6.73
2022-11-07T00:34:53.875Z,7.10
2022-11-07T00:37:57.419Z,6.50
2022-11-07T00:41:02.660Z,6.10
2022-11-07T00:44:06.245Z,6.90
2022-11-07T00:47:09.479Z,7.00
2022-11-07T00:50:13.971Z,10.20
2022-11-07T00:53:17.461Z,8.47
2022-11-07T00:56:23.889Z,9.03
2022-11-07T00:59:27.038Z,6.40
2022-11-07T01:02:30.556Z,6.47
2022-11-07T01:05:34.095Z,5.53
2022-11-07T01:08:37.182Z,6.10
2022-11-07T01:11:40.831Z,6.53
2022-11-07T01:14:44.069Z,6.90
2022-11-07T01:17:47.269Z,7.17
2022-11-07T01:20:51.765Z,5.80
2022-11-07T01:23:55.090Z,6.87
2022-11-07T01:26:58.266Z,6.93
2022-11-07T01:30:01.379Z,7.17
2022-11-07T01:33:04.619Z,7.03
2022-11-07T01:36:12.188Z,7.50
2022-11-07T01:39:16.306Z,7.13
2022-11-07T01:42:19.378Z,5.30
2022-11-07T01:45:24.857Z,5.90
2022-11-07T01:48:28.071Z,5.43
2022-11-07T01:51:35.578Z,6.00
2022-11-07T01:54:43.108Z,6.20
2022-11-07T01:57:49.383Z,6.43
2022-11-07T02:00:52.578Z,6.77
2022-11-07T02:03:57.658Z,5.83
2022-11-07T02:07:06.931Z,6.10
2022-11-07T02:10:10.834Z,5.63
2022-11-07T02:13:20.962Z,6.37
2022-11-07T02:16:24.145Z,6.50
2022-11-07T02:19:34.611Z,6.23
2022-11-07T02:22:48.971Z,7.23
2022-11-07T02:25:53.562Z,8.37
2022-11-07T02:28:58.494Z,6.73
2022-11-07T02:32:02.975Z,7.10
2022-11-07T02:35:08.746Z,8.40
2022-11-07T02:38:16.936Z,6.30
2022-11-07T02:41:23.887Z,6.53
2022-11-07T02:44:27.249Z,8.20
2022-11-07T02:47:30.339Z,6.23
2022-11-07T02:50:33.747Z,5.47
2022-11-07T02:53:37.018Z,6.50
2022-11-07T02:56:41.493Z,4.53
2022-11-07T02:59:44.581Z,4.73
2022-11-07T03:02:48.024Z,5.83
2022-11-07T03:05:51.183Z,4.63
2022-11-07T03:08:54.449Z,7.47
2022-11-07T03:11:58.917Z,4.97
2022-11-07T03:15:02.130Z,6.13
2022-11-07T03:18:05.557Z,4.73
2022-11-07T03:21:08.796Z,5.40
2022-11-07T03:24:11.991Z,5.10
2022-11-07T03:27:17.027Z,4.47
2022-11-07T03:30:20.224Z,5.43
2022-11-07T03:33:23.326Z,4.63
2022-11-07T03:36:26.424Z,4.40
2022-11-07T03:39:29.558Z,4.00
2022-11-07T03:42:39.917Z,3.90
2022-11-07T03:45:43.214Z,4.50
2022-11-07T03:48:46.342Z,4.37
2022-11-07T03:51:49.447Z,3.57
2022-11-07T03:54:52.534Z,4.40
2022-11-07T03:57:56.999Z,6.90
2022-11-07T04:01:00.238Z,5.30
2022-11-07T04:04:03.305Z,4.40
2022-11-07T04:07:06.397Z,4.20
2022-11-07T04:10:09.845Z,6.23
2022-11-07T04:13:31.564Z,7.50
2022-11-07T04:16:51.978Z,7.30
2022-11-07T04:19:56.278Z,8.50
2022-11-07T04:22:59.366Z,7.73
2022-11-07T04:26:19.969Z,8.00
2022-11-07T04:29:24.422Z,7.33
2022-11-07T04:32:27.512Z,6.30
2022-11-07T04:35:32.324Z,7.53
2022-11-07T04:38:35.395Z,9.90
2022-11-07T04:41:38.489Z,7.67
2022-11-07T04:44:43.118Z,7.53
2022-11-07T04:47:46.331Z,7.83
2022-11-07T04:50:50.197Z,7.30
2022-11-07T04:53:53.271Z,7.97
2022-11-07T04:56:56.386Z,8.47
2022-11-07T05:00:00.865Z,9.40
2022-11-07T05:03:04.266Z,9.97
2022-11-07T05:06:07.830Z,10.67
2022-11-07T05:09:15.594Z,11.07
2022-11-07T05:12:18.679Z,8.43
2022-11-07T05:15:23.151Z,8.50
2022-11-07T05:18:26.270Z,8.90
2022-11-07T05:21:29.400Z,11.97
2022-11-07T05:24:32.484Z,8.83
2022-11-07T05:27:35.756Z,7.93
2022-11-07T05:30:42.687Z,8.40
2022-11-07T05:33:45.949Z,11.80
2022-11-07T05:36:49.178Z,9.17
2022-11-07T05:39:55.005Z,11.40
2022-11-07T05:43:01.887Z,9.10
2022-11-07T05:46:07.105Z,9.40
2022-11-07T05:49:10.177Z,10.77
2022-11-07T05:52:13.273Z,9.90
2022-11-07T05:55:16.445Z,12.10
2022-11-07T05:58:20.251Z,9.00
2022-11-07T06:01:24.808Z,11.30
2022-11-07T06:04:27.912Z,8.40
2022-11-07T06:07:34.015Z,10.80
2022-11-07T06:10:37.969Z,11.83
2022-11-07T06:13:41.087Z,12.70
2022-11-07T06:16:45.602Z,10.97
2022-11-07T06:19:48.709Z,9.80
2022-11-07T06:22:51.786Z,13.20
2022-11-07T06:25:54.866Z,9.53
2022-11-07T06:28:57.982Z,10.60
2022-11-07T06:32:02.516Z,10.40
2022-11-07T06:35:06.129Z,8.97
2022-11-07T06:38:11.410Z,8.30
2022-11-07T06:41:15.975Z,8.40
2022-11-07T06:44:19.193Z,9.23
2022-11-07T06:47:23.643Z,7.87
2022-11-07T06:50:26.751Z,8.47
2022-11-07T06:53:30.067Z,9.20
2022-11-07T06:56:33.213Z,9.70
2022-11-07T06:59:36.371Z,9.27
2022-11-07T07:06:05.475Z,12.97
2022-11-07T07:09:08.639Z,12.93
2022-11-07T07:12:11.946Z,10.73
2022-11-07T07:15:15.060Z,10.40
2022-11-07T07:18:19.935Z,10.37
2022-11-07T07:21:23.078Z,9.30
2022-11-07T07:24:26.166Z,11.30
2022-11-07T07:27:29.281Z,13.97
2022-11-07T07:30:32.371Z,9.53
2022-11-07T07:33:37.070Z,8.80
2022-11-07T07:36:40.194Z,9.80
2022-11-07T07:39:43.336Z,13.63
2022-11-07T07:42:46.615Z,10.30
2022-11-07T07:45:49.695Z,13.40
2022-11-07T07:48:54.314Z,11.93
2022-11-07T07:51:57.416Z,11.13
2022-11-07T07:55:00.620Z,9.70
2022-11-07T07:58:03.799Z,10.63
2022-11-07T08:01:10.540Z,11.97
2022-11-07T08:04:15.585Z,13.37
2022-11-07T08:07:18.759Z,8.90
2022-11-07T08:13:44.995Z,11.07
2022-11-07T08:16:48.113Z,8.30
2022-11-07T08:19:52.795Z,5.33
2022-11-07T08:23:02.043Z,4.47
2022-11-07T08:26:06.310Z,4.53
2022-11-07T08:29:09.401Z,5.10
2022-11-07T08:32:13.047Z,7.37
2022-11-07T08:35:17.722Z,5.27
2022-11-07T08:38:20.802Z,6.10
2022-11-07T08:41:24.062Z,4.63
2022-11-07T08:44:27.191Z,5.70
2022-11-07T08:47:30.297Z,7.60
2022-11-07T08:50:34.742Z,5.60
2022-11-07T08:53:37.929Z,5.00
2022-11-07T08:56:41.031Z,5.60
2022-11-07T08:59:44.126Z,4.03
2022-11-07T09:03:23.790Z,3.37
2022-11-07T09:06:12.171Z,3.70
2022-11-07T09:09:16.852Z,4.30
2022-11-07T09:12:20.095Z,4.40
2022-11-07T09:15:23.450Z,4.27
2022-11-07T09:18:26.675Z,3.77
2022-11-07T09:21:31.202Z,11.87
2022-11-07T09:24:34.325Z,9.20
2022-11-07T09:27:37.499Z,6.80
2022-11-07T09:30:40.737Z,3.13
2022-11-07T09:33:43.873Z,3.63
2022-11-07T09:36:48.478Z,3.30
2022-11-07T09:39:51.609Z,4.95
2022-11-07T09:43:08.736Z,5.68
2022-11-07T09:46:28.400Z,2.50
2022-11-07T09:49:38.085Z,2.60
2022-11-07T09:52:48.320Z,2.47
2022-11-07T09:55:55.155Z,3.33
2022-11-07T09:59:02.501Z,4.97
2022-11-07T10:02:13.036Z,3.42
2022-11-07T10:05:19.747Z,2.65
2022-11-07T10:08:31.023Z,2.90
2022-11-07T10:11:36.931Z,3.35
2022-11-07T10:14:50.386Z,5.13
2022-11-07T10:18:01.389Z,3.70
2022-11-07T10:21:36.673Z,3.65
2022-11-07T10:24:48.486Z,4.03
2022-11-07T10:28:01.532Z,10.50
2022-11-07T10:31:08.691Z,5.22
2022-11-07T10:34:20.283Z,5.53
2022-11-07T10:37:23.480Z,5.78
2022-11-07T10:40:34.700Z,4.18
2022-11-07T10:43:40.515Z,8.50
2022-11-07T10:46:47.803Z,5.32
2022-11-07T10:49:58.836Z,5.88
2022-11-07T10:53:05.583Z,5.38
2022-11-07T10:56:12.123Z,4.60
2022-11-07T10:59:22.556Z,4.72
2022-11-07T11:02:30.214Z,3.92
2022-11-07T11:05:42.562Z,4.10
2022-11-07T11:08:46.603Z,4.97
2022-11-07T11:11:54.189Z,3.72
2022-11-07T11:15:11.896Z,4.50
2022-11-07T11:18:18.979Z,4.53
2022-11-07T11:21:22.907Z,6.25
2022-11-07T11:24:33.950Z,4.43
2022-11-07T11:27:39.827Z,6.28
2022-11-07T11:30:43.359Z,16.48
2022-11-07T11:33:49.607Z,8.40
2022-11-07T11:36:57.880Z,5.13
2022-11-07T11:40:16.471Z,3.83
2022-11-07T11:43:24.948Z,1.83
2022-11-07T11:46:34.569Z,2.40
2022-11-07T11:49:43.321Z,2.70
2022-11-07T11:52:46.875Z,2.38
2022-11-07T11:55:59.136Z,1.92
2022-11-07T11:59:28.075Z,2.72
2022-11-07T12:02:58.411Z,1.77
2022-11-07T12:06:13.048Z,2.42
2022-11-07T12:09:32.293Z,1.75
2022-11-07T12:12:54.777Z,1.73
2022-11-07T12:16:09.914Z,2.63
2022-11-07T12:19:24.440Z,2.42
2022-11-07T12:22:41.466Z,1.52
2022-11-07T12:25:49.383Z,1.33
2022-11-07T12:29:01.826Z,1.50
2022-11-07T12:32:14.741Z,3.97
2022-11-07T12:35:36.789Z,2.58
2022-11-07T12:39:27.762Z,1.33
2022-11-07T12:42:46.571Z,2.38
2022-11-07T12:45:56.646Z,2.00
2022-11-07T12:49:48.801Z,1.48
2022-11-07T12:53:04.153Z,2.13
2022-11-07T12:56:11.987Z,4.22
2022-11-07T12:59:20.556Z,2.20
2022-11-07T13:02:46.877Z,2.00
2022-11-07T13:06:06.449Z,2.97
2022-11-07T13:09:18.132Z,2.90
2022-11-07T13:12:31.190Z,2.30
2022-11-07T13:15:53.725Z,1.30
2022-11-07T13:18:57.638Z,1.60
2022-11-07T13:22:03.667Z,2.45
2022-11-07T13:25:28.737Z,2.42
2022-11-07T13:28:38.996Z,2.00
2022-11-07T13:31:42.757Z,5.85
2022-11-07T13:34:57.839Z,0.95
2022-11-07T13:38:08.741Z,0.98
2022-11-07T13:41:12.706Z,0.95
2022-11-07T13:44:21.534Z,2.72
2022-11-07T13:47:32.983Z,6.28
2022-11-07T13:50:42.059Z,1.77
2022-11-07T13:53:55.511Z,1.15
2022-11-07T13:57:03.974Z,2.42
2022-11-07T14:00:14.576Z,1.83
2022-11-07T14:03:27.338Z,1.88
2022-11-07T14:06:33.681Z,2.70
2022-11-07T14:09:38.171Z,1.40
2022-11-07T14:12:41.852Z,2.13
2022-11-07T14:15:48.082Z,2.40
2022-11-07T14:18:53.109Z,1.67
2022-11-07T14:21:57.127Z,1.70
2022-11-07T14:25:02.063Z,2.10
2022-11-07T14:28:08.456Z,1.87
2022-11-07T14:31:19.537Z,2.77
2022-11-07T14:34:23.492Z,4.63
2022-11-07T14:37:27.366Z,6.67
2022-11-07T14:40:31.971Z,5.90
2022-11-07T14:43:35.733Z,4.97
2022-11-07T14:46:38.988Z,5.67
2022-11-07T14:49:44.861Z,4.10
2022-11-07T14:52:55.367Z,3.00
2022-11-07T14:56:04.170Z,1.90
2022-11-07T14:59:10.298Z,4.13
2022-11-07T15:02:26.064Z,3.07
2022-11-07T15:05:30.633Z,8.60
2022-11-07T15:08:35.382Z,8.97
2022-11-07T15:11:41.311Z,14.17
2022-11-07T15:14:45.288Z,7.73
2022-11-07T15:17:50.219Z,16.23
2022-11-07T15:20:59.523Z,7.67
2022-11-07T15:24:27.558Z,16.43
2022-11-07T15:27:36.185Z,10.37
2022-11-07T15:30:39.701Z,9.63
2022-11-07T15:33:42.993Z,6.97
2022-11-07T15:36:46.390Z,13.60
2022-11-07T15:39:49.777Z,24.93
2022-11-07T15:42:54.758Z,18.67
2022-11-07T15:45:58.279Z,19.30
2022-11-07T15:49:02.564Z,22.00
2022-11-07T15:52:06.164Z,6.43
2022-11-07T15:55:14.128Z,6.60
2022-11-07T15:58:20.329Z,10.27
2022-11-07T16:01:24.407Z,5.30
2022-11-07T16:04:27.912Z,8.60
2022-11-07T16:07:31.182Z,6.80
2022-11-07T16:10:35.025Z,7.23
2022-11-07T16:13:40.414Z,10.70
2022-11-07T16:16:45.725Z,9.67
2022-11-07T16:19:48.876Z,12.80
2022-11-07T16:22:53.268Z,5.40
2022-11-07T16:25:56.744Z,8.90
2022-11-07T16:29:01.577Z,10.37
2022-11-07T16:32:05.641Z,6.33
2022-11-07T16:35:09.826Z,8.77
2022-11-07T16:38:15.601Z,5.00
2022-11-07T16:41:19.199Z,8.97
2022-11-07T16:44:26.225Z,6.77
2022-11-07T16:47:36.479Z,8.93
2022-11-07T16:50:39.954Z,9.90
2022-11-07T16:53:43.458Z,6.83
2022-11-07T16:56:51.591Z,6.53
2022-11-07T16:59:56.355Z,9.60
2022-11-07T17:02:59.942Z,9.40
2022-11-07T17:06:05.191Z,8.67
2022-11-07T17:09:13.607Z,8.83
2022-11-07T17:12:21.258Z,9.10
2022-11-07T17:15:26.685Z,12.60
2022-11-07T17:18:31.421Z,7.27
2022-11-07T17:21:40.307Z,8.13
2022-11-07T17:24:45.596Z,8.63
2022-11-07T17:27:49.566Z,10.00
2022-11-07T17:30:55.283Z,12.43
2022-11-07T17:34:00.601Z,15.60
2022-11-07T17:37:05.654Z,14.93
2022-11-07T17:40:16.639Z,10.90
2022-11-07T17:43:23.443Z,12.70
2022-11-07T17:46:31.253Z,11.53
2022-11-07T17:49:35.961Z,13.23
2022-11-07T17:52:40.538Z,12.97
2022-11-07T17:55:44.965Z,8.60
2022-11-07T17:58:50.370Z,10.90
2022-11-07T18:01:56.120Z,9.77
2022-11-07T18:05:00.321Z,8.10
2022-11-07T18:08:07.232Z,7.70
2022-11-07T18:11:14.807Z,7.87
2022-11-07T18:14:19.321Z,8.57
2022-11-07T18:17:27.959Z,8.93
2022-11-07T18:20:33.506Z,10.87
2022-11-07T18:23:38.546Z,10.20
2022-11-07T18:26:42.479Z,12.20
2022-11-07T18:29:50.820Z,9.87
2022-11-07T18:32:56.714Z,9.90
2022-11-07T18:36:07.294Z,9.90
2022-11-07T18:39:16.711Z,12.07
2022-11-07T18:42:20.959Z,31.63
2022-11-07T18:45:28.494Z,46.60
2022-11-07T18:48:35.420Z,28.60
2022-11-07T18:51:43.030Z,18.63
2022-11-07T18:54:47.127Z,38.07
2022-11-07T18:57:51.901Z,17.07
2022-11-07T19:00:56.944Z,11.30
2022-11-07T19:04:06.942Z,11.77
2022-11-07T19:07:10.968Z,9.93
2022-11-07T19:10:16.381Z,11.43
2022-11-07T19:13:21.072Z,18.23
2022-11-07T19:16:25.575Z,33.63
2022-11-07T19:19:31.587Z,24.00
2022-11-07T19:22:36.134Z,12.37
2022-11-07T19:25:43.858Z,11.40
2022-11-07T19:28:48.716Z,11.60
2022-11-07T19:31:53.331Z,15.40
2022-11-07T19:35:03.065Z,10.87
2022-11-07T19:38:09.103Z,18.00
2022-11-07T19:41:14.647Z,15.53
2022-11-07T19:44:18.861Z,17.00
2022-11-07T19:47:24.054Z,26.33
2022-11-07T19:50:29.720Z,16.77
2022-11-07T19:53:34.302Z,22.63
2022-11-07T19:56:41.854Z,18.27
2022-11-07T19:59:46.656Z,10.77
2022-11-07T20:02:51.724Z,8.93
2022-11-07T20:05:58.217Z,9.10
2022-11-07T20:09:14.140Z,9.03
2022-11-07T20:12:18.142Z,9.07
2022-11-07T20:15:23.024Z,9.47
2022-11-07T20:18:27.242Z,11.00
2022-11-07T20:21:34.187Z,9.80
2022-11-07T20:24:38.984Z,9.70
2022-11-07T20:27:43.119Z,8.70
2022-11-07T20:30:46.597Z,8.70
2022-11-07T20:33:51.342Z,9.57
2022-11-07T20:36:58.238Z,8.17
2022-11-07T20:40:02.722Z,8.97
2022-11-07T20:43:09.200Z,12.73
2022-11-07T20:46:18.047Z,11.03
2022-11-07T20:49:22.980Z,12.27
2022-11-07T20:52:41.287Z,13.30
2022-11-07T20:55:45.899Z,12.80
2022-11-07T20:58:51.611Z,11.47
2022-11-07T21:02:02.729Z,11.30
2022-11-07T21:05:23.447Z,11.37
2022-11-07T21:08:33.150Z,10.63
2022-11-07T21:11:42.142Z,9.53
2022-11-07T21:14:45.414Z,8.63
2022-11-07T21:17:48.787Z,9.43
2022-11-07T21:20:52.477Z,10.47
2022-11-07T21:23:59.142Z,9.97
2022-11-07T21:27:02.251Z,8.97
2022-11-07T21:30:08.606Z,10.20
2022-11-07T21:33:11.895Z,8.77
2022-11-07T21:36:17.914Z,9.60
2022-11-07T21:39:25.243Z,9.80
2022-11-07T21:42:28.989Z,8.70
2022-11-07T21:45:32.355Z,8.53
2022-11-07T21:48:36.693Z,7.07
2022-11-07T21:51:40.114Z,9.40
2022-11-07T21:54:44.657Z,8.17
2022-11-07T21:57:47.883Z,7.20
2022-11-07T22:00:51.106Z,8.17
2022-11-07T22:04:11.519Z,8.47
2022-11-07T22:07:15.463Z,7.93
2022-11-07T22:10:20.014Z,11.17
2022-11-07T22:13:23.156Z,8.37
2022-11-07T22:16:26.431Z,7.57
2022-11-07T22:19:29.762Z,7.77
2022-11-07T22:22:34.495Z,6.57
2022-11-07T22:25:38.982Z,8.47
2022-11-07T22:28:46.156Z,9.33
2022-11-07T22:31:49.866Z,7.13
2022-11-07T22:34:52.978Z,7.37
2022-11-07T22:37:56.087Z,6.10
2022-11-07T22:41:00.705Z,8.47
2022-11-07T22:44:03.863Z,7.30
2022-11-07T22:47:07.119Z,7.73
2022-11-07T22:50:10.915Z,9.53
2022-11-07T22:53:14.257Z,9.43
2022-11-07T22:56:20.433Z,8.00
2022-11-07T22:59:23.613Z,7.03
2022-11-07T23:02:26.935Z,6.87
2022-11-07T23:05:30.162Z,7.23
2022-11-07T23:08:34.662Z,6.57
2022-11-07T23:11:48.012Z,5.77
2022-11-07T23:14:51.625Z,6.20
2022-11-07T23:17:54.790Z,6.63
2022-11-07T23:21:14.071Z,7.00
2022-11-07T23:24:17.504Z,9.67
2022-11-07T23:27:22.096Z,7.80
2022-11-07T23:30:25.653Z,5.97
2022-11-07T23:33:28.809Z,8.73
2022-11-07T23:36:31.973Z,7.30
2022-11-07T23:39:35.179Z,8.03
2022-11-07T23:42:39.759Z,8.40
2022-11-07T23:46:05.620Z,7.80
2022-11-07T23:49:27.252Z,6.63
2022-11-07T23:52:30.495Z,8.37
2022-11-07T23:55:40.204Z,9.50
2022-11-07T23:59:01.991Z,12.27
